Time;durP1;ratioP1;P1;durP2;ratioP2;P2;SDS_P1;SDS_P2;PMS_P1;PMS_P2;Temp;Humidity;BMP_temperature;BMP_pressure;BME280_temperature;BME280_humidity;BME280_pressure;Samples;Min_cycle;Max_cycle;Signal;HPM_P1;HPM_P2
2021/07/02 00:00:19;;;;;;;11.32;7.18;;;;;;;16.23;nan;100442.06;5065748;28;20398;-76
2021/07/02 00:02:45;;;;;;;9.13;6.80;;;;;;;16.25;nan;100445.56;5062567;28;20125;-76
2021/07/02 00:05:11;;;;;;;11.18;7.90;;;;;;;16.16;nan;100441.38;5063224;28;20120;-76
2021/07/02 00:07:37;;;;;;;12.38;7.85;;;;;;;16.06;nan;100443.47;5065425;28;20032;-76
2021/07/02 00:10:06;;;;;;;10.20;7.15;;;;;;;16.05;nan;100443.50;5062024;28;20403;-76
2021/07/02 00:12:32;;;;;;;15.27;8.25;;;;;;;15.96;nan;100444.66;5063124;28;20048;-76
2021/07/02 00:14:57;;;;;;;16.38;8.85;;;;;;;15.83;nan;100444.16;5064955;28;20036;-76
2021/07/02 00:17:23;;;;;;;13.65;8.73;;;;;;;15.88;nan;100444.88;5063498;28;20047;-76
2021/07/02 00:19:48;;;;;;;12.38;8.55;;;;;;;15.96;nan;100442.00;5063391;28;20115;-76
2021/07/02 00:22:13;;;;;;;10.15;7.53;;;;;;;15.85;nan;100439.66;5065355;28;20041;-76
2021/07/02 00:24:39;;;;;;;11.82;7.80;;;;;;;15.88;nan;100436.03;5061371;28;20040;-76
2021/07/02 00:27:04;;;;;;;12.32;7.63;;;;;;;15.96;nan;100434.00;5063672;28;20041;-76
2021/07/02 00:29:29;;;;;;;11.75;8.63;;;;;;;15.85;nan;100441.41;5065266;28;20029;-76
2021/07/02 00:31:55;;;;;;;11.77;8.52;;;;;;;15.90;nan;100442.16;5062504;28;20033;-76
2021/07/02 00:34:20;;;;;;;15.63;8.55;;;;;;;15.87;nan;100435.13;5063630;28;20081;-76
2021/07/02 00:36:46;;;;;;;13.75;8.85;;;;;;;15.88;nan;100446.69;5064873;28;20032;-76
2021/07/02 00:39:11;;;;;;;13.32;8.27;;;;;;;15.93;nan;100426.13;5063796;28;20112;-76
2021/07/02 00:41:37;;;;;;;12.88;7.65;;;;;;;15.88;nan;100428.06;5065990;28;20033;-76
2021/07/02 00:44:03;;;;;;;13.02;8.45;;;;;;;15.93;nan;100431.44;5061592;28;20044;-76
2021/07/02 00:46:29;;;;;;;12.70;7.68;;;;;;;16.03;nan;100429.38;5064603;28;20418;-76
2021/07/02 00:48:54;;;;;;;13.55;9.05;;;;;;;16.05;nan;100436.38;5062454;28;20071;-76
2021/07/02 00:51:21;;;;;;;12.32;7.93;;;;;;;15.98;nan;100426.84;5061535;28;20037;-76
2021/07/02 00:53:48;;;;;;;12.70;8.13;;;;;;;15.93;nan;100432.31;5064630;28;20066;-76
2021/07/02 00:56:19;;;;;;;12.48;8.77;;;;;;;15.98;nan;100432.16;5062370;28;20116;-76
2021/07/02 00:58:46;;;;;;;13.30;9.48;;;;;;;15.94;nan;100425.19;5060703;28;20154;-76
2021/07/02 01:01:15;;;;;;;12.45;8.13;;;;;;;15.95;nan;100424.25;5062896;28;20024;-76
2021/07/02 01:03:43;;;;;;;11.75;8.95;;;;;;;15.99;nan;100423.28;5063829;28;20402;-76
2021/07/02 01:06:10;;;;;;;11.80;8.30;;;;;;;16.02;nan;100422.31;5060006;28;20033;-76
2021/07/02 01:08:35;;;;;;;13.30;9.73;;;;;;;15.97;nan;100425.09;5063613;28;20039;-76
2021/07/02 01:11:01;;;;;;;11.95;8.73;;;;;;;16.01;nan;100421.44;5062564;28;20466;-76
2021/07/02 01:13:27;;;;;;;11.18;8.35;;;;;;;16.02;nan;100423.19;5060441;28;20033;-76
2021/07/02 01:15:55;;;;;;;11.77;8.18;;;;;;;16.03;nan;100419.59;5061778;28;20028;-76
2021/07/02 01:18:24;;;;;;;11.93;7.82;;;;;;;16.04;nan;100420.47;5062503;28;20032;-76
2021/07/02 01:20:53;;;;;;;13.00;8.52;;;;;;;15.98;nan;100425.06;5056932;28;20046;-77
2021/07/02 01:23:19;;;;;;;14.18;8.55;;;;;;;15.92;nan;100411.91;5062667;28;20032;-76
2021/07/02 01:25:46;;;;;;;10.60;7.95;;;;;;;15.93;nan;100419.00;5062372;28;20043;-76
2021/07/02 01:28:13;;;;;;;11.95;8.68;;;;;;;15.93;nan;100412.81;5061800;28;20033;-77
2021/07/02 01:30:42;;;;;;;11.40;8.10;;;;;;;16.00;nan;100414.34;5061278;28;20548;-76
2021/07/02 01:33:09;;;;;;;11.50;8.35;;;;;;;15.97;nan;100417.13;5060385;28;20028;-76
2021/07/02 01:35:36;;;;;;;11.00;7.65;;;;;;;15.92;nan;100413.72;5060622;28;20037;-76
2021/07/02 01:38:03;;;;;;;10.93;7.68;;;;;;;15.99;nan;100408.16;5060308;28;20064;-76
2021/07/02 01:40:31;;;;;;;10.13;7.28;;;;;;;16.03;nan;100406.28;5063841;28;20029;-76
2021/07/02 01:42:59;;;;;;;9.35;7.13;;;;;;;15.97;nan;100406.47;5045104;28;20037;-76
2021/07/02 01:45:26;;;;;;;10.38;7.38;;;;;;;15.94;nan;100409.22;5059389;28;20040;-76
2021/07/02 01:47:52;;;;;;;9.40;7.55;;;;;;;16.01;nan;100405.47;5062103;28;20032;-76
2021/07/02 01:50:21;;;;;;;11.50;6.70;;;;;;;16.07;nan;100405.28;5061444;28;20038;-76
2021/07/02 01:52:48;;;;;;;10.35;7.20;;;;;;;16.08;nan;100401.69;5060858;28;20098;-76
2021/07/02 01:55:16;;;;;;;11.35;7.00;;;;;;;16.10;nan;100414.94;5061232;28;20033;-76
2021/07/02 01:57:42;;;;;;;8.82;6.53;;;;;;;16.07;nan;100413.25;5061973;28;20078;-76
2021/07/02 02:00:14;;;;;;;8.40;5.75;;;;;;;16.09;nan;100419.41;5056945;28;20032;-76
2021/07/02 02:02:42;;;;;;;7.97;6.10;;;;;;;16.06;nan;100406.22;5060864;28;20041;-77
2021/07/02 02:05:09;;;;;;;9.35;5.82;;;;;;;16.06;nan;100411.53;5061742;28;20486;-76
2021/07/02 02:07:36;;;;;;;10.05;6.28;;;;;;;16.04;nan;100407.16;5060443;28;20112;-76
2021/07/02 02:10:04;;;;;;;9.15;6.65;;;;;;;16.05;nan;100412.44;5059783;28;20028;-76
2021/07/02 02:12:30;;;;;;;9.43;5.80;;;;;;;16.04;nan;100404.50;5059392;28;20032;-77
2021/07/02 02:14:57;;;;;;;9.30;6.40;;;;;;;15.97;nan;100409.13;5043836;28;20051;-76
2021/07/02 02:17:23;;;;;;;7.30;5.30;;;;;;;15.92;nan;100403.06;5061686;28;20059;-76
2021/07/02 02:19:50;;;;;;;9.63;6.90;;;;;;;15.94;nan;100403.91;5055587;28;20083;-76
2021/07/02 02:22:15;;;;;;;7.55;5.78;;;;;;;15.92;nan;100400.41;5060546;28;20037;-76
2021/07/02 02:24:44;;;;;;;7.97;5.88;;;;;;;15.96;nan;100402.94;5061321;28;20604;-76
2021/07/02 02:27:11;;;;;;;9.23;6.10;;;;;;;15.92;nan;100405.72;5059353;28;20517;-76
2021/07/02 02:29:37;;;;;;;10.52;6.15;;;;;;;15.85;nan;100402.41;5054149;28;20087;-76
2021/07/02 02:32:04;;;;;;;7.93;5.97;;;;;;;15.88;nan;100398.78;5059236;28;20044;-76
2021/07/02 02:34:29;;;;;;;10.50;7.28;;;;;;;15.82;nan;100406.91;5062286;28;20128;-76
2021/07/02 02:36:56;;;;;;;9.15;6.45;;;;;;;15.83;nan;100398.03;5060177;28;20067;-76
2021/07/02 02:39:24;;;;;;;9.00;5.95;;;;;;;15.90;nan;100407.56;5062211;28;20033;-76
2021/07/02 02:41:49;;;;;;;6.18;4.95;;;;;;;15.99;nan;100409.97;5060499;28;20039;-76
2021/07/02 02:44:16;;;;;;;8.13;5.78;;;;;;;15.95;nan;100405.63;5059407;28;20032;-76
2021/07/02 02:46:43;;;;;;;9.07;6.30;;;;;;;15.92;nan;100411.06;5061368;28;20046;-76
2021/07/02 02:49:08;;;;;;;7.93;5.60;;;;;;;15.98;nan;100406.44;5059045;28;20025;-76
2021/07/02 02:51:34;;;;;;;8.93;6.72;;;;;;;15.98;nan;100410.88;5059658;28;20912;-76
2021/07/02 02:53:59;;;;;;;9.57;5.90;;;;;;;15.96;nan;100404.75;5062380;28;20032;-76
2021/07/02 02:56:26;;;;;;;8.82;5.68;;;;;;;15.99;nan;100407.31;5058571;28;20503;-76
2021/07/02 02:58:52;;;;;;;9.55;7.45;;;;;;;15.99;nan;100407.31;5060931;28;20037;-76
2021/07/02 03:01:18;;;;;;;12.45;10.13;;;;;;;16.00;nan;100401.03;5061281;28;20024;-76
2021/07/02 03:03:44;;;;;;;8.13;5.65;;;;;;;16.02;nan;100406.34;5040040;28;20510;-76
2021/07/02 03:06:14;;;;;;;8.10;5.65;;;;;;;16.03;nan;100406.28;5059016;28;20120;-76
2021/07/02 03:08:40;;;;;;;6.80;4.40;;;;;;;15.93;nan;100413.69;5060680;28;20036;-76
2021/07/02 03:11:06;;;;;;;7.25;5.18;;;;;;;16.01;nan;100416.13;5060501;28;20112;-76
2021/07/02 03:13:31;;;;;;;6.95;4.97;;;;;;;16.05;nan;100416.88;5064403;28;20035;-76
2021/07/02 03:15:57;;;;;;;8.45;5.22;;;;;;;16.09;nan;100408.75;5065745;28;20147;-76
2021/07/02 03:18:24;;;;;;;8.38;6.10;;;;;;;16.09;nan;100423.88;5067193;28;20513;-77
2021/07/02 03:20:51;;;;;;;6.70;5.13;;;;;;;16.09;nan;100418.56;5066946;28;20025;-76
2021/07/02 03:23:17;;;;;;;7.10;5.25;;;;;;;16.07;nan;100421.25;5057901;28;20025;-76
2021/07/02 03:25:43;;;;;;;7.10;5.20;;;;;;;16.05;nan;100422.22;5066666;28;20059;-76
2021/07/02 03:28:08;;;;;;;7.47;5.03;;;;;;;16.07;nan;100423.91;5066449;28;20037;-76
2021/07/02 03:30:34;;;;;;;8.40;5.97;;;;;;;16.12;nan;100429.97;5064720;28;20044;-76
2021/07/02 03:33:00;;;;;;;9.38;6.32;;;;;;;16.20;nan;100433.25;5056905;28;20033;-76
2021/07/02 03:35:26;;;;;;;12.45;6.75;;;;;;;16.15;nan;100426.34;5064431;28;20060;-76
2021/07/02 03:37:52;;;;;;;14.02;7.88;;;;;;;16.23;nan;100426.97;5064926;28;20036;-76
2021/07/02 03:40:18;;;;;;;10.50;5.90;;;;;;;16.25;nan;100427.81;5067436;28;20502;-76
2021/07/02 03:42:49;;;;;;;14.68;8.10;;;;;;;16.21;nan;100429.66;5066942;28;20037;-76
2021/07/02 03:45:15;;;;;;;9.35;6.22;;;;;;;16.30;nan;100433.00;5065695;28;20032;-76
2021/07/02 03:47:42;;;;;;;7.25;5.35;;;;;;;16.32;nan;100425.78;5068072;28;20043;-76
2021/07/02 03:50:09;;;;;;;7.43;5.28;;;;;;;16.35;nan;100431.06;5067951;28;20099;-76
2021/07/02 03:52:34;;;;;;;7.40;5.13;;;;;;;16.34;nan;100438.16;5065901;28;20029;-76
2021/07/02 03:55:00;;;;;;;6.70;4.57;;;;;;;16.35;nan;100436.38;5067769;28;20028;-77
2021/07/02 03:57:25;;;;;;;7.85;5.53;;;;;;;16.28;nan;100445.47;5066344;28;20044;-76
2021/07/02 03:59:51;;;;;;;6.88;5.10;;;;;;;16.25;nan;100445.56;5068601;28;20051;-76
2021/07/02 04:02:18;;;;;;;8.23;5.60;;;;;;;16.26;nan;100437.53;5068228;28;20032;-76
2021/07/02 04:04:43;;;;;;;9.35;5.32;;;;;;;16.26;nan;100442.84;5065909;28;20032;-76
2021/07/02 04:07:10;;;;;;;8.45;6.25;;;;;;;16.26;nan;100437.53;5065816;28;20399;-76
2021/07/02 04:09:37;;;;;;;12.15;8.02;;;;;;;16.29;nan;100448.06;5067029;28;20040;-76
2021/07/02 04:12:03;;;;;;;8.30;6.03;;;;;;;16.25;nan;100445.56;5034130;28;20033;-76
2021/07/02 04:14:30;;;;;;;9.20;5.57;;;;;;;16.23;nan;100447.41;5065245;28;20119;-76
2021/07/02 04:16:55;;;;;;;7.53;5.38;;;;;;;16.24;nan;100450.00;5067955;28;20064;-77
2021/07/02 04:19:21;;;;;;;7.07;5.30;;;;;;;16.23;nan;100458.91;5067229;28;20076;-76
2021/07/02 04:21:47;;;;;;;9.50;5.43;;;;;;;16.25;nan;100450.91;5065791;28;20148;-77
2021/07/02 04:24:12;;;;;;;8.93;6.13;;;;;;;16.22;nan;100451.88;5060004;28;20025;-76
2021/07/02 04:26:38;;;;;;;9.90;7.72;;;;;;;16.21;nan;100450.97;5063917;28;20044;-76
2021/07/02 04:29:03;;;;;;;8.10;5.78;;;;;;;16.30;nan;100454.28;5064823;28;20115;-77
2021/07/02 04:31:28;;;;;;;8.27;5.45;;;;;;;16.28;nan;100450.81;5062277;28;20479;-76
2021/07/02 04:33:54;;;;;;;11.52;5.80;;;;;;;16.28;nan;100453.47;5062880;28;20032;-76
2021/07/02 04:36:19;;;;;;;7.65;5.65;;;;;;;16.25;nan;100454.44;5064111;28;20474;-76
2021/07/02 04:38:45;;;;;;;6.68;4.72;;;;;;;16.21;nan;100456.28;5061122;28;20128;-76
2021/07/02 04:41:10;;;;;;;9.57;6.00;;;;;;;16.21;nan;100450.97;5064495;28;20097;-77
2021/07/02 04:43:36;;;;;;;8.20;5.20;;;;;;;16.30;nan;100459.63;5063872;28;20051;-76
2021/07/02 04:46:02;;;;;;;8.32;5.35;;;;;;;16.34;nan;100453.25;5061631;28;20090;-76
2021/07/02 04:48:27;;;;;;;10.32;5.90;;;;;;;16.39;nan;100454.00;5063382;28;20044;-76
2021/07/02 04:50:53;;;;;;;10.85;6.85;;;;;;;16.34;nan;100459.44;5063419;28;20032;-76
2021/07/02 04:53:19;;;;;;;11.95;8.57;;;;;;;16.33;nan;100460.38;5062252;28;20102;-76
2021/07/02 04:55:44;;;;;;;11.90;6.40;;;;;;;16.36;nan;100464.75;5063164;28;20032;-77
2021/07/02 04:58:10;;;;;;;7.78;5.18;;;;;;;16.34;nan;100464.78;5062997;28;20487;-77
2021/07/02 05:00:35;;;;;;;9.57;6.93;;;;;;;16.25;nan;100462.41;5062258;28;20082;-76
2021/07/02 05:03:01;;;;;;;9.05;6.68;;;;;;;16.25;nan;100472.19;5064574;28;20035;-76
2021/07/02 05:05:26;;;;;;;12.75;7.53;;;;;;;16.18;nan;100477.69;5062298;28;20123;-76
2021/07/02 05:07:51;;;;;;;18.27;10.95;;;;;;;16.18;nan;100474.16;5062714;28;20033;-76
2021/07/02 05:10:17;;;;;;;16.75;11.18;;;;;;;16.17;nan;100472.44;5064435;28;20115;-76
2021/07/02 05:12:42;;;;;;;21.23;13.32;;;;;;;16.18;nan;100476.81;5062147;28;20056;-76
2021/07/02 05:15:09;;;;;;;19.92;13.05;;;;;;;16.17;nan;100470.63;5062418;28;20069;-77
2021/07/02 05:17:34;;;;;;;18.65;13.20;;;;;;;16.16;nan;100487.50;5064301;28;20147;-76
2021/07/02 05:20:00;;;;;;;25.48;13.77;;;;;;;16.14;nan;100486.72;5061738;28;20037;-76
2021/07/02 05:22:25;;;;;;;24.73;16.27;;;;;;;16.16;nan;100498.16;5062998;28;20040;-76
2021/07/02 05:24:51;;;;;;;31.42;16.38;;;;;;;16.14;nan;100494.69;5063608;28;20098;-77
2021/07/02 05:27:16;;;;;;;22.98;14.85;;;;;;;16.16;nan;100489.31;5061407;28;20056;-76
2021/07/02 05:29:42;;;;;;;33.25;19.23;;;;;;;16.15;nan;100492.91;5063092;28;20036;-76
2021/07/02 05:32:08;;;;;;;35.55;19.15;;;;;;;16.13;nan;100500.06;5063472;28;20444;-76
2021/07/02 05:34:34;;;;;;;44.55;20.60;;;;;;;16.15;nan;100498.22;5059930;28;20036;-77
2021/07/02 05:37:00;;;;;;;29.63;17.80;;;;;;;16.18;nan;100500.78;5064827;28;20020;-77
2021/07/02 05:39:26;;;;;;;30.58;17.67;;;;;;;16.18;nan;100500.78;5063171;28;20393;-77
2021/07/02 05:41:51;;;;;;;34.47;19.55;;;;;;;16.19;nan;100498.09;5061192;28;20025;-76
2021/07/02 05:44:16;;;;;;;32.88;19.23;;;;;;;16.20;nan;100501.63;5063013;28;20045;-76
2021/07/02 05:46:42;;;;;;;42.13;21.42;;;;;;;16.21;nan;100504.22;5062634;28;20052;-77
2021/07/02 05:49:07;;;;;;;36.63;22.40;;;;;;;16.25;nan;100493.50;5061175;28;20032;-77
2021/07/02 05:51:32;;;;;;;38.35;21.88;;;;;;;16.28;nan;100496.06;5063628;28;20095;-77
2021/07/02 05:53:58;;;;;;;36.83;21.50;;;;;;;16.29;nan;100508.44;5062370;28;20454;-76
2021/07/02 05:56:29;;;;;;;41.90;23.35;;;;;;;16.34;nan;100499.41;5061232;28;20406;-77
2021/07/02 05:58:56;;;;;;;37.20;21.65;;;;;;;16.41;nan;100503.63;5061536;28;20124;-76
2021/07/02 06:01:22;;;;;;;37.45;21.58;;;;;;;16.42;nan;100501.84;5062199;28;20036;-77
2021/07/02 06:03:47;;;;;;;43.95;23.05;;;;;;;16.44;nan;100500.00;5045609;28;20036;-77
2021/07/02 06:06:13;;;;;;;45.78;25.13;;;;;;;16.48;nan;100496.34;5061152;28;20068;-77
2021/07/02 06:08:38;;;;;;;50.15;28.90;;;;;;;16.48;nan;100508.75;5061944;28;20525;-76
2021/07/02 06:11:03;;;;;;;49.88;28.30;;;;;;;16.45;nan;100507.06;5063604;28;20040;-77
2021/07/02 06:13:29;;;;;;;57.92;32.38;;;;;;;16.41;nan;100505.44;5057035;28;20048;-77
2021/07/02 06:15:54;;;;;;;63.92;33.42;;;;;;;16.39;nan;100509.94;5061892;28;20044;-77
2021/07/02 06:18:19;;;;;;;63.20;34.63;;;;;;;16.28;nan;100514.72;5063211;28;20032;-77
2021/07/02 06:20:45;;;;;;;58.72;33.25;;;;;;;16.41;nan;100503.63;5059791;28;20033;-77
2021/07/02 06:23:11;;;;;;;68.95;35.85;;;;;;;16.48;nan;100504.31;5062756;28;20039;-77
2021/07/02 06:25:36;;;;;;;73.28;35.28;;;;;;;16.59;nan;100504.84;5061103;28;20502;-77
2021/07/02 06:28:02;;;;;;;66.45;33.97;;;;;;;16.58;nan;100507.56;5060784;28;20044;-77
2021/07/02 06:30:27;;;;;;;64.65;34.38;;;;;;;16.59;nan;100515.50;5062785;28;20154;-77
2021/07/02 06:32:52;;;;;;;55.83;33.40;;;;;;;16.57;nan;100521.81;5062578;28;20041;-77
2021/07/02 06:35:18;;;;;;;53.65;31.48;;;;;;;16.57;nan;100514.69;5061057;28;20471;-77
2021/07/02 06:37:49;;;;;;;57.30;32.92;;;;;;;16.63;nan;100522.47;5063723;28;20104;-77
2021/07/02 06:40:16;;;;;;;53.03;30.33;;;;;;;16.63;nan;100529.59;5063067;28;20425;-77
2021/07/02 06:42:42;;;;;;;56.40;32.40;;;;;;;16.65;nan;100525.97;5061019;28;20535;-77
2021/07/02 06:45:08;;;;;;;45.78;29.20;;;;;;;16.73;nan;100524.88;5062725;28;20047;-77
2021/07/02 06:47:33;;;;;;;48.83;28.55;;;;;;;16.79;nan;100532.69;5062946;28;20044;-77
2021/07/02 06:49:58;;;;;;;51.72;28.52;;;;;;;16.80;nan;100524.66;5061072;28;20086;-77
2021/07/02 06:52:24;;;;;;;47.00;30.20;;;;;;;16.91;nan;100529.63;5063609;28;20037;-77
2021/07/02 06:54:49;;;;;;;51.42;30.73;;;;;;;17.08;nan;100529.97;5062156;28;20044;-77
2021/07/02 06:57:15;;;;;;;50.25;30.25;;;;;;;17.18;nan;100530.53;5060989;28;20090;-77
2021/07/02 06:59:41;;;;;;;45.40;28.50;;;;;;;17.30;nan;100535.44;5051851;28;20074;-77
2021/07/02 07:02:12;;;;;;;43.17;27.70;;;;;;;17.41;nan;100531.53;5062862;28;20415;-77
2021/07/02 07:04:37;;;;;;;32.58;23.90;;;;;;;17.48;nan;100531.28;5061615;28;20028;-77
2021/07/02 07:07:05;;;;;;;39.65;25.42;;;;;;;17.48;nan;100533.94;5064406;28;20535;-77
2021/07/02 07:09:31;;;;;;;38.17;25.85;;;;;;;17.62;nan;100537.94;5069199;28;20105;-77
2021/07/02 07:11:57;;;;;;;40.58;24.00;;;;;;;17.63;nan;100537.00;5071434;28;20040;-77
2021/07/02 07:14:23;;;;;;;38.88;25.25;;;;;;;17.70;nan;100541.19;5070554;28;20099;-77
2021/07/02 07:16:48;;;;;;;40.67;25.88;;;;;;;17.62;nan;100544.13;5071080;28;20043;-77
2021/07/02 07:19:14;;;;;;;42.17;24.70;;;;;;;17.77;nan;100544.53;5065369;28;20037;-77
2021/07/02 07:21:40;;;;;;;40.70;25.63;;;;;;;17.76;nan;100554.31;5061575;28;20384;-77
2021/07/02 07:24:05;;;;;;;35.33;24.42;;;;;;;17.72;nan;100558.91;5061957;28;20049;-77
2021/07/02 07:26:30;;;;;;;33.17;23.02;;;;;;;17.80;nan;100560.47;5062023;28;20032;-77
2021/07/02 07:28:56;;;;;;;32.03;21.38;;;;;;;17.81;nan;100563.06;5060769;28;20041;-77
2021/07/02 07:31:21;;;;;;;33.75;22.75;;;;;;;17.81;nan;100556.88;5060909;28;20073;-77
2021/07/02 07:33:48;;;;;;;33.22;21.42;;;;;;;17.79;nan;100564.94;5061757;28;20072;-77
2021/07/02 07:36:16;;;;;;;29.35;20.55;;;;;;;17.92;nan;100560.00;5059828;28;20048;-77
2021/07/02 07:38:42;;;;;;;31.98;21.65;;;;;;;18.07;nan;100569.28;5061405;28;20119;-77
2021/07/02 07:41:08;;;;;;;30.05;21.55;;;;;;;18.22;nan;100567.84;5062673;28;20032;-77
2021/07/02 07:43:34;;;;;;;27.88;20.33;;;;;;;18.42;nan;100561.75;5056434;28;20029;-77
2021/07/02 07:46:00;;;;;;;28.02;20.45;;;;;;;18.61;nan;100565.47;5061593;28;20046;-77
2021/07/02 07:48:25;;;;;;;27.15;18.33;;;;;;;18.67;nan;100557.19;5062607;28;20158;-77
2021/07/02 07:50:53;;;;;;;25.10;18.48;;;;;;;18.62;nan;100567.19;5060142;28;20377;-77
2021/07/02 07:53:19;;;;;;;23.55;17.90;;;;;;;18.80;nan;100561.16;5061267;28;20043;-77
2021/07/02 07:55:45;;;;;;;28.05;18.40;;;;;;;18.89;nan;100569.75;5062187;28;20047;-77
2021/07/02 07:58:10;;;;;;;30.17;18.95;;;;;;;19.02;nan;100560.28;5059980;28;20040;-77
2021/07/02 08:00:35;;;;;;;26.85;19.33;;;;;;;19.16;nan;100560.59;5064210;28;20398;-77
2021/07/02 08:03:01;;;;;;;27.02;17.83;;;;;;;19.36;nan;100566.91;5065777;28;20391;-77
2021/07/02 08:05:28;;;;;;;25.98;19.38;;;;;;;19.32;nan;100562.66;5063532;28;20497;-77
2021/07/02 08:07:53;;;;;;;28.65;19.70;;;;;;;19.42;nan;100558.66;5065815;28;20036;-77
2021/07/02 08:10:20;;;;;;;26.80;19.50;;;;;;;19.61;nan;100562.28;5065638;28;20051;-77
2021/07/02 08:12:46;;;;;;;29.58;19.65;;;;;;;19.67;nan;100567.38;5062813;28;20071;-77
2021/07/02 08:15:13;;;;;;;26.52;19.92;;;;;;;19.58;nan;100565.09;5065953;28;20064;-77
2021/07/02 08:17:38;;;;;;;29.60;19.50;;;;;;;19.63;nan;100572.94;5048282;28;20029;-77
2021/07/02 08:20:06;;;;;;;31.58;20.45;;;;;;;19.60;nan;100568.59;5064468;28;20514;-77
2021/07/02 08:22:33;;;;;;;28.23;18.38;;;;;;;19.78;nan;100571.41;5065671;28;20031;-77
2021/07/02 08:24:58;;;;;;;29.67;18.35;;;;;;;19.85;nan;100572.88;5066503;28;20115;-77
2021/07/02 08:27:25;;;;;;;31.42;20.70;;;;;;;20.00;nan;100571.34;5064149;28;20056;-77
2021/07/02 08:29:51;;;;;;;27.35;19.30;;;;;;;20.18;nan;100569.66;5066739;28;20036;-77
2021/07/02 08:32:17;;;;;;;23.73;18.77;;;;;;;20.26;nan;100571.03;5068010;28;20451;-77
2021/07/02 08:34:42;;;;;;;20.55;16.65;;;;;;;20.43;nan;100575.59;5063616;28;20415;-77
2021/07/02 08:37:07;;;;;;;26.35;18.73;;;;;;;20.53;nan;100587.66;5065676;28;20700;-77
2021/07/02 08:39:33;;;;;;;23.75;17.20;;;;;;;20.34;nan;100595.69;5063937;28;20055;-77
2021/07/02 08:41:58;;;;;;;25.63;17.40;;;;;;;20.25;nan;100587.19;5061962;28;20025;-77
2021/07/02 08:44:24;;;;;;;29.25;18.48;;;;;;;20.11;nan;100575.28;5064503;28;20574;-77
2021/07/02 08:46:50;;;;;;;21.52;16.23;;;;;;;20.19;nan;100587.47;5063516;28;20043;-77
2021/07/02 08:49:17;;;;;;;32.53;20.27;;;;;;;20.12;nan;100593.13;5063227;28;20037;-77
2021/07/02 08:51:42;;;;;;;24.95;18.02;;;;;;;20.10;nan;100592.31;5056403;28;20064;-77
2021/07/02 08:54:13;;;;;;;26.98;19.77;;;;;;;20.28;nan;100581.69;5064109;28;20453;-77
2021/07/02 08:56:41;;;;;;;23.43;17.97;;;;;;;20.66;nan;100584.44;5065236;28;20044;-77
2021/07/02 08:59:06;;;;;;;23.67;17.83;;;;;;;21.07;nan;100581.59;5064053;28;20368;-77
2021/07/02 09:01:38;;;;;;;27.67;17.55;;;;;;;21.43;nan;100581.59;5063641;28;20043;-77
2021/07/02 09:04:17;;;;;;;;;;;;;;;21.45;nan;100577.88;5060098;28;20045;-77
2021/07/02 09:06:42;;;;;;;24.13;17.30;;;;;;;21.68;nan;100583.91;5062404;28;20299;-77
2021/07/02 09:09:09;;;;;;;22.85;16.92;;;;;;;21.69;nan;100574.88;5064913;28;20038;-77
2021/07/02 09:11:36;;;;;;;23.30;16.25;;;;;;;21.53;nan;100590.91;5064384;28;20032;-77
2021/07/02 09:14:07;;;;;;;21.80;15.60;;;;;;;21.77;nan;100583.44;5062745;28;20395;-77
2021/07/02 09:16:38;;;;;;;22.02;15.95;;;;;;;21.54;nan;100583.75;5063225;28;20238;-77
2021/07/02 09:19:24;;;;;;;21.73;15.20;;;;;;;21.47;nan;100585.00;5064995;28;20044;-77
2021/07/02 09:21:50;;;;;;;23.10;15.52;;;;;;;21.52;nan;100593.69;5063875;28;20112;-77
2021/07/02 09:24:35;;;;;;;22.40;15.50;;;;;;;21.39;nan;100590.75;5059927;28;20144;-77
2021/07/02 09:27:20;;;;;;;17.15;13.77;;;;;;;21.23;nan;100594.16;5059986;28;20033;-77
2021/07/02 09:30:00;;;;;;;17.17;12.90;;;;;;;21.16;nan;100598.09;5041654;28;20037;-77
2021/07/02 09:32:25;;;;;;;20.05;13.85;;;;;;;21.34;nan;100598.13;5058617;28;20069;-77
2021/07/02 09:34:54;;;;;;;20.02;12.73;;;;;;;21.59;nan;100597.81;5062875;28;20055;-77
2021/07/02 09:37:32;;;;;;;17.85;12.57;;;;;;;21.77;nan;100593.28;5062890;28;20025;-77
2021/07/02 09:40:09;;;;;;;17.52;12.75;;;;;;;21.69;nan;100603.56;5063883;28;20036;-77
2021/07/02 09:42:34;;;;;;;19.70;11.77;;;;;;;21.76;nan;100589.75;5060145;28;20062;-77
2021/07/02 09:45:05;;;;;;;18.27;11.77;;;;;;;21.75;nan;100593.38;5061745;28;20037;-77
2021/07/02 09:47:31;;;;;;;13.93;11.75;;;;;;;21.90;nan;100591.69;5069871;28;20415;-78
2021/07/02 09:50:22;;;;;;;20.02;14.02;;;;;;;22.24;nan;100584.56;5060971;28;20036;-77
2021/07/02 09:53:03;;;;;;;16.38;11.10;;;;;;;22.65;nan;100587.69;5061639;28;20040;-77
2021/07/02 09:55:32;;;;;;;15.63;11.45;;;;;;;22.88;nan;100593.63;5061566;28;20339;-77
2021/07/02 09:58:08;;;;;;;19.20;12.20;;;;;;;22.94;nan;100593.25;5052618;28;20079;-77
2021/07/02 10:00:38;;;;;;;17.17;11.38;;;;;;;23.03;nan;100592.78;5061781;28;20103;-77
2021/07/02 10:03:05;;;;;;;14.80;11.07;;;;;;;23.06;nan;100587.22;5041004;28;20133;-77
2021/07/02 10:05:43;;;;;;;16.13;11.35;;;;;;;22.93;nan;100595.09;5062026;28;20045;-77
2021/07/02 10:08:08;;;;;;;16.08;11.25;;;;;;;22.76;nan;100592.47;5059726;28;20033;-77
2021/07/02 10:10:33;;;;;;;13.57;10.07;;;;;;;22.78;nan;100603.16;5062244;28;20033;-77
2021/07/02 10:12:59;;;;;;;14.52;10.25;;;;;;;22.87;nan;100584.69;5064232;28;20039;-77
2021/07/02 10:15:26;;;;;;;15.05;10.77;;;;;;;23.12;nan;100581.47;5061537;28;20128;-77
2021/07/02 10:17:55;;;;;;;15.48;11.55;;;;;;;23.00;nan;100584.00;5062828;28;20052;-77
2021/07/02 10:20:21;;;;;;;13.93;10.90;;;;;;;22.85;nan;100586.59;5063165;28;20086;-77
2021/07/02 10:22:47;;;;;;;13.02;10.77;;;;;;;23.01;nan;100581.25;5061657;28;20037;-77
2021/07/02 10:25:15;;;;;;;11.18;8.57;;;;;;;23.23;nan;100588.06;5060621;28;20039;-77
2021/07/02 10:27:40;;;;;;;12.52;9.02;;;;;;;23.12;nan;100573.41;5063792;28;20478;-77
2021/07/02 10:30:07;;;;;;;12.88;9.40;;;;;;;23.09;nan;100576.28;5062163;28;20044;-77
2021/07/02 10:32:33;;;;;;;16.73;10.10;;;;;;;23.29;nan;100583.22;5061111;28;20041;-77
2021/07/02 10:34:59;;;;;;;11.18;8.35;;;;;;;23.56;nan;100575.31;5062023;28;20079;-77
2021/07/02 10:37:26;;;;;;;14.30;8.68;;;;;;;23.91;nan;100575.03;5061592;28;20037;-77
2021/07/02 10:39:53;;;;;;;12.70;9.02;;;;;;;24.20;nan;100569.69;5064170;28;20044;-77
2021/07/02 10:42:18;;;;;;;12.35;9.35;;;;;;;24.41;nan;100573.72;5060077;28;20395;-77
2021/07/02 10:44:53;;;;;;;14.45;10.27;;;;;;;24.69;nan;100572.88;5062501;28;20033;-77
2021/07/02 10:47:19;;;;;;;12.00;8.48;;;;;;;24.98;nan;100578.22;5063894;28;20040;-77
2021/07/02 10:49:44;;;;;;;10.57;7.72;;;;;;;25.14;nan;100578.06;5061983;28;20073;-77
2021/07/02 10:52:24;;;;;;;10.95;7.65;;;;;;;25.39;nan;100576.44;5061842;28;20041;-77
2021/07/02 10:54:51;;;;;;;9.95;6.90;;;;;;;25.62;nan;100574.88;5059661;28;20052;-77
2021/07/02 10:57:19;;;;;;;13.07;8.25;;;;;;;25.75;nan;100568.56;5061343;28;20554;-77
2021/07/02 10:59:51;;;;;;;10.70;6.93;;;;;;;25.49;nan;100578.44;5057615;28;20228;-78
2021/07/02 11:02:20;;;;;;;8.85;6.43;;;;;;;25.19;nan;100565.16;5061357;28;20037;-77
2021/07/02 11:04:59;;;;;;;11.02;7.40;;;;;;;24.65;nan;100582.16;5040452;28;20069;-78
2021/07/02 11:07:29;;;;;;;9.23;7.03;;;;;;;24.19;nan;100586.84;5060497;28;20029;-77
2021/07/02 11:10:03;;;;;;;16.67;8.13;;;;;;;23.93;nan;100586.59;5062093;28;20037;-77
2021/07/02 11:12:30;;;;;;;9.48;6.70;;;;;;;23.79;nan;100590.16;5062917;28;20044;-77
2021/07/02 11:14:56;;;;;;;13.50;8.52;;;;;;;23.69;nan;100588.06;5059624;28;20120;-77
2021/07/02 11:17:26;;;;;;;12.23;8.60;;;;;;;23.71;nan;100595.09;5060604;28;20037;-77
2021/07/02 11:20:04;;;;;;;12.02;7.90;;;;;;;23.89;nan;100594.97;5056885;28;20037;-77
2021/07/02 11:22:32;;;;;;;10.02;7.90;;;;;;;23.84;nan;100604.22;5060400;28;20037;-77
2021/07/02 11:25:22;;;;;;;13.02;9.07;;;;;;;23.43;nan;100605.78;5061746;28;20422;-77
2021/07/02 11:27:50;;;;;;;10.23;7.80;;;;;;;23.56;nan;100596.00;5059221;28;20107;-77
2021/07/02 11:30:16;;;;;;;11.30;8.50;;;;;;;23.72;nan;100593.31;5058469;28;20053;-77